sensor_id;sensor_type;location;lat;lon;timestamp;P1;durP1;ratioP1;P2;durP2;ratioP2
14599;SDS011;7386;45.586;12.854;2024-03-02T00:01:07;13.90;;;5.80;;
14599;SDS011;7386;45.586;12.854;2024-03-02T00:03:36;15.70;;;6.13;;
14599;SDS011;7386;45.586;12.854;2024-03-02T00:06:04;17.10;;;5.83;;
14599;SDS011;7386;45.586;12.854;2024-03-02T00:08:33;16.13;;;6.30;;
14599;SDS011;7386;45.586;12.854;2024-03-02T00:11:03;15.47;;;6.37;;
14599;SDS011;7386;45.586;12.854;2024-03-02T00:13:31;14.53;;;5.97;;
14599;SDS011;7386;45.586;12.854;2024-03-02T00:16:01;14.50;;;6.07;;
14599;SDS011;7386;45.586;12.854;2024-03-02T00:18:32;13.23;;;6.30;;
14599;SDS011;7386;45.586;12.854;2024-03-02T00:21:01;12.60;;;6.27;;
14599;SDS011;7386;45.586;12.854;2024-03-02T00:23:30;14.27;;;6.93;;
14599;SDS011;7386;45.586;12.854;2024-03-02T00:25:59;15.60;;;7.03;;
14599;SDS011;7386;45.586;12.854;2024-03-02T00:28:29;11.37;;;6.10;;
14599;SDS011;7386;45.586;12.854;2024-03-02T00:31:02;12.37;;;6.87;;
14599;SDS011;7386;45.586;12.854;2024-03-02T00:33:31;13.77;;;7.37;;
14599;SDS011;7386;45.586;12.854;2024-03-02T00:36:00;14.77;;;7.30;;
14599;SDS011;7386;45.586;12.854;2024-03-02T00:38:30;13.47;;;7.97;;
14599;SDS011;7386;45.586;12.854;2024-03-02T00:40:59;11.97;;;7.53;;
14599;SDS011;7386;45.586;12.854;2024-03-02T00:43:41;11.40;;;6.93;;
14599;SDS011;7386;45.586;12.854;2024-03-02T00:46:15;13.07;;;7.07;;
14599;SDS011;7386;45.586;12.854;2024-03-02T00:48:47;14.17;;;7.03;;
14599;SDS011;7386;45.586;12.854;2024-03-02T00:51:16;12.43;;;7.17;;
14599;SDS011;7386;45.586;12.854;2024-03-02T00:53:44;14.47;;;7.03;;
14599;SDS011;7386;45.586;12.854;2024-03-02T00:56:13;15.53;;;6.33;;
14599;SDS011;7386;45.586;12.854;2024-03-02T00:58:43;13.07;;;6.83;;
14599;SDS011;7386;45.586;12.854;2024-03-02T01:01:12;14.30;;;7.10;;
14599;SDS011;7386;45.586;12.854;2024-03-02T01:03:40;13.43;;;6.70;;
14599;SDS011;7386;45.586;12.854;2024-03-02T01:06:09;15.03;;;6.83;;
14599;SDS011;7386;45.586;12.854;2024-03-02T01:08:37;15.17;;;6.73;;
14599;SDS011;7386;45.586;12.854;2024-03-02T01:11:06;13.10;;;6.97;;
14599;SDS011;7386;45.586;12.854;2024-03-02T01:13:35;13.53;;;6.70;;
14599;SDS011;7386;45.586;12.854;2024-03-02T01:16:05;13.33;;;7.27;;
14599;SDS011;7386;45.586;12.854;2024-03-02T01:18:33;13.37;;;6.90;;
14599;SDS011;7386;45.586;12.854;2024-03-02T01:21:02;14.40;;;7.90;;
14599;SDS011;7386;45.586;12.854;2024-03-02T01:23:30;12.63;;;7.20;;
14599;SDS011;7386;45.586;12.854;2024-03-02T01:25:59;11.20;;;7.20;;
14599;SDS011;7386;45.586;12.854;2024-03-02T01:28:28;13.27;;;6.47;;
14599;SDS011;7386;45.586;12.854;2024-03-02T01:30:56;18.40;;;6.97;;
14599;SDS011;7386;45.586;12.854;2024-03-02T01:33:26;16.83;;;6.10;;
14599;SDS011;7386;45.586;12.854;2024-03-02T01:35:55;12.07;;;5.47;;
14599;SDS011;7386;45.586;12.854;2024-03-02T01:38:23;11.43;;;4.67;;
14599;SDS011;7386;45.586;12.854;2024-03-02T01:40:52;13.93;;;4.00;;
14599;SDS011;7386;45.586;12.854;2024-03-02T01:43:21;13.07;;;4.30;;
14599;SDS011;7386;45.586;12.854;2024-03-02T01:45:49;11.87;;;4.43;;
14599;SDS011;7386;45.586;12.854;2024-03-02T01:48:18;13.30;;;4.37;;
14599;SDS011;7386;45.586;12.854;2024-03-02T01:50:48;10.97;;;4.63;;
14599;SDS011;7386;45.586;12.854;2024-03-02T01:53:16;9.47;;;3.60;;
14599;SDS011;7386;45.586;12.854;2024-03-02T01:55:45;12.50;;;3.70;;
14599;SDS011;7386;45.586;12.854;2024-03-02T01:58:13;10.37;;;2.93;;
14599;SDS011;7386;45.586;12.854;2024-03-02T02:00:42;11.30;;;3.60;;
14599;SDS011;7386;45.586;12.854;2024-03-02T02:03:11;11.57;;;4.27;;
14599;SDS011;7386;45.586;12.854;2024-03-02T02:05:41;10.63;;;3.53;;
14599;SDS011;7386;45.586;12.854;2024-03-02T02:08:11;7.67;;;3.17;;
14599;SDS011;7386;45.586;12.854;2024-03-02T02:10:40;6.17;;;3.00;;
14599;SDS011;7386;45.586;12.854;2024-03-02T02:13:08;7.67;;;3.60;;
14599;SDS011;7386;45.586;12.854;2024-03-02T02:15:37;5.63;;;3.30;;
14599;SDS011;7386;45.586;12.854;2024-03-02T02:18:05;10.47;;;3.70;;
14599;SDS011;7386;45.586;12.854;2024-03-02T02:20:34;7.07;;;3.13;;
14599;SDS011;7386;45.586;12.854;2024-03-02T02:23:04;7.73;;;3.40;;
14599;SDS011;7386;45.586;12.854;2024-03-02T02:25:34;7.93;;;2.87;;
14599;SDS011;7386;45.586;12.854;2024-03-02T02:28:03;8.20;;;3.20;;
14599;SDS011;7386;45.586;12.854;2024-03-02T02:30:32;6.13;;;3.10;;
14599;SDS011;7386;45.586;12.854;2024-03-02T02:33:01;10.33;;;3.50;;
14599;SDS011;7386;45.586;12.854;2024-03-02T02:35:29;8.03;;;3.40;;
14599;SDS011;7386;45.586;12.854;2024-03-02T02:37:58;7.67;;;3.17;;
14599;SDS011;7386;45.586;12.854;2024-03-02T02:40:28;9.43;;;3.50;;
14599;SDS011;7386;45.586;12.854;2024-03-02T02:42:57;11.83;;;3.90;;
14599;SDS011;7386;45.586;12.854;2024-03-02T02:45:26;13.93;;;4.60;;
14599;SDS011;7386;45.586;12.854;2024-03-02T02:47:54;9.97;;;4.40;;
14599;SDS011;7386;45.586;12.854;2024-03-02T02:50:23;13.97;;;4.77;;
14599;SDS011;7386;45.586;12.854;2024-03-02T02:52:51;12.10;;;4.43;;
14599;SDS011;7386;45.586;12.854;2024-03-02T02:55:20;14.53;;;5.00;;
14599;SDS011;7386;45.586;12.854;2024-03-02T02:57:49;10.93;;;4.30;;
14599;SDS011;7386;45.586;12.854;2024-03-02T03:00:18;9.87;;;3.83;;
14599;SDS011;7386;45.586;12.854;2024-03-02T03:02:48;9.77;;;3.90;;
14599;SDS011;7386;45.586;12.854;2024-03-02T03:05:17;11.63;;;4.33;;
14599;SDS011;7386;45.586;12.854;2024-03-02T03:07:46;10.50;;;3.90;;
14599;SDS011;7386;45.586;12.854;2024-03-02T03:10:16;11.20;;;4.03;;
14599;SDS011;7386;45.586;12.854;2024-03-02T03:12:49;10.23;;;4.07;;
14599;SDS011;7386;45.586;12.854;2024-03-02T03:15:18;15.87;;;4.77;;
14599;SDS011;7386;45.586;12.854;2024-03-02T03:17:47;14.57;;;4.83;;
14599;SDS011;7386;45.586;12.854;2024-03-02T03:20:15;10.60;;;4.53;;
14599;SDS011;7386;45.586;12.854;2024-03-02T03:22:44;8.60;;;4.20;;
14599;SDS011;7386;45.586;12.854;2024-03-02T03:25:12;12.13;;;4.70;;
14599;SDS011;7386;45.586;12.854;2024-03-02T03:27:41;10.30;;;5.00;;
14599;SDS011;7386;45.586;12.854;2024-03-02T03:30:11;15.77;;;4.43;;
14599;SDS011;7386;45.586;12.854;2024-03-02T03:32:40;13.00;;;4.47;;
14599;SDS011;7386;45.586;12.854;2024-03-02T03:35:08;15.87;;;4.60;;
14599;SDS011;7386;45.586;12.854;2024-03-02T03:37:38;12.87;;;5.37;;
14599;SDS011;7386;45.586;12.854;2024-03-02T03:40:07;15.73;;;4.77;;
14599;SDS011;7386;45.586;12.854;2024-03-02T03:42:37;15.80;;;5.20;;
14599;SDS011;7386;45.586;12.854;2024-03-02T03:45:06;10.43;;;4.63;;
14599;SDS011;7386;45.586;12.854;2024-03-02T03:47:39;12.67;;;4.60;;
14599;SDS011;7386;45.586;12.854;2024-03-02T03:50:07;9.80;;;4.23;;
14599;SDS011;7386;45.586;12.854;2024-03-02T03:52:35;8.63;;;3.70;;
14599;SDS011;7386;45.586;12.854;2024-03-02T03:55:04;8.00;;;3.50;;
14599;SDS011;7386;45.586;12.854;2024-03-02T03:57:33;8.80;;;3.30;;
14599;SDS011;7386;45.586;12.854;2024-03-02T04:00:02;11.57;;;3.73;;
14599;SDS011;7386;45.586;12.854;2024-03-02T04:02:31;7.30;;;3.03;;
14599;SDS011;7386;45.586;12.854;2024-03-02T04:05:00;7.33;;;2.93;;
14599;SDS011;7386;45.586;12.854;2024-03-02T04:07:31;10.57;;;3.73;;
14599;SDS011;7386;45.586;12.854;2024-03-02T04:09:59;9.17;;;3.07;;
14599;SDS011;7386;45.586;12.854;2024-03-02T04:12:28;9.33;;;3.10;;
14599;SDS011;7386;45.586;12.854;2024-03-02T04:14:56;8.37;;;3.00;;
14599;SDS011;7386;45.586;12.854;2024-03-02T04:17:25;5.33;;;3.23;;
14599;SDS011;7386;45.586;12.854;2024-03-02T04:19:53;10.23;;;3.27;;
14599;SDS011;7386;45.586;12.854;2024-03-02T04:22:23;9.00;;;3.30;;
14599;SDS011;7386;45.586;12.854;2024-03-02T04:24:52;8.60;;;3.23;;
14599;SDS011;7386;45.586;12.854;2024-03-02T04:27:21;13.43;;;3.80;;
14599;SDS011;7386;45.586;12.854;2024-03-02T04:29:49;8.03;;;3.30;;
14599;SDS011;7386;45.586;12.854;2024-03-02T04:32:17;11.00;;;3.83;;
14599;SDS011;7386;45.586;12.854;2024-03-02T04:34:47;11.83;;;4.07;;
14599;SDS011;7386;45.586;12.854;2024-03-02T04:37:15;8.13;;;3.73;;
14599;SDS011;7386;45.586;12.854;2024-03-02T04:39:45;8.70;;;4.37;;
14599;SDS011;7386;45.586;12.854;2024-03-02T04:42:13;8.37;;;4.20;;
14599;SDS011;7386;45.586;12.854;2024-03-02T04:44:42;10.07;;;5.03;;
14599;SDS011;7386;45.586;12.854;2024-03-02T04:47:10;14.87;;;4.93;;
14599;SDS011;7386;45.586;12.854;2024-03-02T04:49:39;13.13;;;4.73;;
14599;SDS011;7386;45.586;12.854;2024-03-02T04:52:07;10.37;;;4.87;;
14599;SDS011;7386;45.586;12.854;2024-03-02T04:54:36;10.83;;;5.20;;
14599;SDS011;7386;45.586;12.854;2024-03-02T04:57:26;7.83;;;4.90;;
14599;SDS011;7386;45.586;12.854;2024-03-02T04:59:54;9.93;;;5.07;;
14599;SDS011;7386;45.586;12.854;2024-03-02T05:02:23;10.47;;;4.83;;
14599;SDS011;7386;45.586;12.854;2024-03-02T05:04:51;10.33;;;4.93;;
14599;SDS011;7386;45.586;12.854;2024-03-02T05:07:20;13.47;;;5.00;;
14599;SDS011;7386;45.586;12.854;2024-03-02T05:09:48;8.40;;;4.70;;
14599;SDS011;7386;45.586;12.854;2024-03-02T05:12:16;9.03;;;5.13;;
14599;SDS011;7386;45.586;12.854;2024-03-02T05:15:15;10.90;;;4.90;;
14599;SDS011;7386;45.586;12.854;2024-03-02T05:17:43;8.67;;;5.10;;
14599;SDS011;7386;45.586;12.854;2024-03-02T05:20:12;9.80;;;5.23;;
14599;SDS011;7386;45.586;12.854;2024-03-02T05:22:40;11.10;;;5.40;;
14599;SDS011;7386;45.586;12.854;2024-03-02T05:25:09;9.57;;;4.97;;
14599;SDS011;7386;45.586;12.854;2024-03-02T05:27:38;8.57;;;5.53;;
14599;SDS011;7386;45.586;12.854;2024-03-02T05:30:07;7.83;;;5.30;;
14599;SDS011;7386;45.586;12.854;2024-03-02T05:32:37;8.47;;;5.63;;
14599;SDS011;7386;45.586;12.854;2024-03-02T05:35:05;9.53;;;6.03;;
14599;SDS011;7386;45.586;12.854;2024-03-02T05:37:34;9.63;;;5.97;;
14599;SDS011;7386;45.586;12.854;2024-03-02T05:40:03;10.93;;;6.07;;
14599;SDS011;7386;45.586;12.854;2024-03-02T05:42:32;10.63;;;6.57;;
14599;SDS011;7386;45.586;12.854;2024-03-02T05:45:00;11.53;;;6.63;;
14599;SDS011;7386;45.586;12.854;2024-03-02T05:47:29;8.57;;;5.87;;
14599;SDS011;7386;45.586;12.854;2024-03-02T05:49:58;8.90;;;6.00;;
14599;SDS011;7386;45.586;12.854;2024-03-02T05:52:27;8.37;;;6.03;;
14599;SDS011;7386;45.586;12.854;2024-03-02T05:54:55;8.87;;;6.10;;
14599;SDS011;7386;45.586;12.854;2024-03-02T05:57:24;10.20;;;6.60;;
14599;SDS011;7386;45.586;12.854;2024-03-02T06:00:12;8.80;;;6.50;;
14599;SDS011;7386;45.586;12.854;2024-03-02T06:02:43;9.17;;;6.43;;
14599;SDS011;7386;45.586;12.854;2024-03-02T06:05:13;9.00;;;6.37;;
14599;SDS011;7386;45.586;12.854;2024-03-02T06:07:43;10.00;;;6.27;;
14599;SDS011;7386;45.586;12.854;2024-03-02T06:10:11;8.80;;;6.60;;
14599;SDS011;7386;45.586;12.854;2024-03-02T06:12:40;8.17;;;6.07;;
14599;SDS011;7386;45.586;12.854;2024-03-02T06:15:09;11.20;;;6.70;;
14599;SDS011;7386;45.586;12.854;2024-03-02T06:17:38;9.97;;;7.30;;
14599;SDS011;7386;45.586;12.854;2024-03-02T06:20:07;9.60;;;6.50;;
14599;SDS011;7386;45.586;12.854;2024-03-02T06:22:37;9.43;;;6.83;;
14599;SDS011;7386;45.586;12.854;2024-03-02T06:25:06;9.37;;;6.50;;
14599;SDS011;7386;45.586;12.854;2024-03-02T06:27:36;9.57;;;6.23;;
14599;SDS011;7386;45.586;12.854;2024-03-02T06:30:04;9.30;;;6.97;;
14599;SDS011;7386;45.586;12.854;2024-03-02T06:32:34;10.87;;;6.93;;
14599;SDS011;7386;45.586;12.854;2024-03-02T06:35:03;12.53;;;7.30;;
14599;SDS011;7386;45.586;12.854;2024-03-02T06:37:32;12.80;;;7.67;;
14599;SDS011;7386;45.586;12.854;2024-03-02T06:40:01;13.83;;;7.97;;
14599;SDS011;7386;45.586;12.854;2024-03-02T06:42:30;15.57;;;7.80;;
14599;SDS011;7386;45.586;12.854;2024-03-02T06:45:00;14.03;;;7.70;;
14599;SDS011;7386;45.586;12.854;2024-03-02T06:47:28;14.50;;;7.57;;
14599;SDS011;7386;45.586;12.854;2024-03-02T06:49:57;14.30;;;7.90;;
14599;SDS011;7386;45.586;12.854;2024-03-02T06:52:26;15.97;;;7.60;;
14599;SDS011;7386;45.586;12.854;2024-03-02T06:54:54;11.73;;;6.97;;
14599;SDS011;7386;45.586;12.854;2024-03-02T06:57:24;14.70;;;7.23;;
14599;SDS011;7386;45.586;12.854;2024-03-02T06:59:53;13.13;;;6.23;;
14599;SDS011;7386;45.586;12.854;2024-03-02T07:02:24;10.80;;;6.40;;
14599;SDS011;7386;45.586;12.854;2024-03-02T07:04:53;10.43;;;6.63;;
14599;SDS011;7386;45.586;12.854;2024-03-02T07:07:22;9.23;;;5.43;;
14599;SDS011;7386;45.586;12.854;2024-03-02T07:09:50;10.67;;;5.80;;
14599;SDS011;7386;45.586;12.854;2024-03-02T07:12:18;9.40;;;5.60;;
14599;SDS011;7386;45.586;12.854;2024-03-02T07:14:48;9.37;;;5.73;;
14599;SDS011;7386;45.586;12.854;2024-03-02T07:17:37;12.20;;;5.70;;
14599;SDS011;7386;45.586;12.854;2024-03-02T07:20:05;8.33;;;5.40;;
14599;SDS011;7386;45.586;12.854;2024-03-02T07:22:34;9.57;;;5.93;;
14599;SDS011;7386;45.586;12.854;2024-03-02T07:25:07;9.70;;;5.70;;
14599;SDS011;7386;45.586;12.854;2024-03-02T07:27:57;9.30;;;5.30;;
14599;SDS011;7386;45.586;12.854;2024-03-02T07:30:26;11.37;;;5.50;;
14599;SDS011;7386;45.586;12.854;2024-03-02T07:32:58;9.70;;;6.20;;
14599;SDS011;7386;45.586;12.854;2024-03-02T07:35:27;9.97;;;6.07;;
14599;SDS011;7386;45.586;12.854;2024-03-02T07:37:58;11.43;;;6.40;;
14599;SDS011;7386;45.586;12.854;2024-03-02T07:40:26;9.60;;;6.40;;
14599;SDS011;7386;45.586;12.854;2024-03-02T07:42:54;10.17;;;7.00;;
14599;SDS011;7386;45.586;12.854;2024-03-02T07:45:23;12.30;;;7.10;;
14599;SDS011;7386;45.586;12.854;2024-03-02T07:47:53;11.87;;;7.30;;
14599;SDS011;7386;45.586;12.854;2024-03-02T07:50:21;10.30;;;7.40;;
14599;SDS011;7386;45.586;12.854;2024-03-02T07:52:50;13.77;;;7.97;;
14599;SDS011;7386;45.586;12.854;2024-03-02T07:55:18;14.53;;;7.93;;
14599;SDS011;7386;45.586;12.854;2024-03-02T07:57:47;11.67;;;8.37;;
14599;SDS011;7386;45.586;12.854;2024-03-02T08:00:16;10.73;;;7.23;;
14599;SDS011;7386;45.586;12.854;2024-03-02T08:02:44;12.33;;;7.63;;
14599;SDS011;7386;45.586;12.854;2024-03-02T08:05:14;12.60;;;7.73;;
14599;SDS011;7386;45.586;12.854;2024-03-02T08:07:43;15.77;;;7.97;;
14599;SDS011;7386;45.586;12.854;2024-03-02T08:10:12;11.17;;;7.30;;
14599;SDS011;7386;45.586;12.854;2024-03-02T08:12:40;11.60;;;7.00;;
14599;SDS011;7386;45.586;12.854;2024-03-02T08:15:09;10.57;;;7.00;;
14599;SDS011;7386;45.586;12.854;2024-03-02T08:17:39;11.67;;;7.07;;
14599;SDS011;7386;45.586;12.854;2024-03-02T08:20:11;9.57;;;6.07;;
14599;SDS011;7386;45.586;12.854;2024-03-02T08:22:41;8.33;;;5.77;;
14599;SDS011;7386;45.586;12.854;2024-03-02T08:25:09;9.33;;;6.37;;
14599;SDS011;7386;45.586;12.854;2024-03-02T08:27:39;8.13;;;5.57;;
14599;SDS011;7386;45.586;12.854;2024-03-02T08:30:08;8.27;;;5.40;;
14599;SDS011;7386;45.586;12.854;2024-03-02T08:32:37;7.57;;;5.03;;
14599;SDS011;7386;45.586;12.854;2024-03-02T08:35:07;8.90;;;5.00;;
14599;SDS011;7386;45.586;12.854;2024-03-02T08:37:36;8.13;;;4.60;;
14599;SDS011;7386;45.586;12.854;2024-03-02T08:40:07;9.27;;;6.10;;
14599;SDS011;7386;45.586;12.854;2024-03-02T08:42:39;9.73;;;5.90;;
14599;SDS011;7386;45.586;12.854;2024-03-02T08:45:07;8.27;;;4.80;;
14599;SDS011;7386;45.586;12.854;2024-03-02T08:47:36;12.47;;;4.70;;
14599;SDS011;7386;45.586;12.854;2024-03-02T08:50:05;10.47;;;6.87;;
14599;SDS011;7386;45.586;12.854;2024-03-02T08:52:34;9.53;;;5.97;;
14599;SDS011;7386;45.586;12.854;2024-03-02T08:55:03;8.47;;;4.57;;
14599;SDS011;7386;45.586;12.854;2024-03-02T08:57:33;10.07;;;6.00;;
14599;SDS011;7386;45.586;12.854;2024-03-02T09:00:02;11.83;;;7.17;;
14599;SDS011;7386;45.586;12.854;2024-03-02T09:02:31;9.73;;;4.83;;
14599;SDS011;7386;45.586;12.854;2024-03-02T09:04:59;7.07;;;3.87;;
14599;SDS011;7386;45.586;12.854;2024-03-02T09:07:28;9.27;;;5.23;;
14599;SDS011;7386;45.586;12.854;2024-03-02T09:09:56;9.80;;;4.80;;
14599;SDS011;7386;45.586;12.854;2024-03-02T09:12:25;7.30;;;3.93;;
14599;SDS011;7386;45.586;12.854;2024-03-02T09:14:55;9.33;;;3.67;;
14599;SDS011;7386;45.586;12.854;2024-03-02T09:17:23;13.77;;;7.27;;
14599;SDS011;7386;45.586;12.854;2024-03-02T09:19:52;11.03;;;5.30;;
14599;SDS011;7386;45.586;12.854;2024-03-02T09:22:20;7.80;;;3.93;;
14599;SDS011;7386;45.586;12.854;2024-03-02T09:24:49;20.37;;;10.33;;
14599;SDS011;7386;45.586;12.854;2024-03-02T09:27:18;26.87;;;15.53;;
14599;SDS011;7386;45.586;12.854;2024-03-02T09:29:47;20.10;;;9.90;;
14599;SDS011;7386;45.586;12.854;2024-03-02T09:32:16;14.33;;;7.33;;
14599;SDS011;7386;45.586;12.854;2024-03-02T09:34:45;27.27;;;14.20;;
14599;SDS011;7386;45.586;12.854;2024-03-02T09:37:14;20.07;;;12.57;;
14599;SDS011;7386;45.586;12.854;2024-03-02T09:39:43;15.00;;;7.73;;
14599;SDS011;7386;45.586;12.854;2024-03-02T09:42:12;12.00;;;5.87;;
14599;SDS011;7386;45.586;12.854;2024-03-02T09:44:41;26.87;;;15.10;;
14599;SDS011;7386;45.586;12.854;2024-03-02T09:47:10;14.57;;;9.53;;
14599;SDS011;7386;45.586;12.854;2024-03-02T09:49:40;15.97;;;6.73;;
14599;SDS011;7386;45.586;12.854;2024-03-02T09:52:08;23.33;;;12.87;;
14599;SDS011;7386;45.586;12.854;2024-03-02T09:54:38;26.17;;;15.27;;
14599;SDS011;7386;45.586;12.854;2024-03-02T09:57:06;14.73;;;8.77;;
14599;SDS011;7386;45.586;12.854;2024-03-02T09:59:36;15.70;;;6.03;;
14599;SDS011;7386;45.586;12.854;2024-03-02T10:02:04;27.57;;;15.30;;
14599;SDS011;7386;45.586;12.854;2024-03-02T10:04:34;21.57;;;12.07;;
14599;SDS011;7386;45.586;12.854;2024-03-02T10:07:11;15.00;;;7.80;;
14599;SDS011;7386;45.586;12.854;2024-03-02T10:09:39;10.67;;;5.63;;
14599;SDS011;7386;45.586;12.854;2024-03-02T10:12:08;31.90;;;19.33;;
14599;SDS011;7386;45.586;12.854;2024-03-02T10:14:37;23.53;;;13.37;;
14599;SDS011;7386;45.586;12.854;2024-03-02T10:17:06;16.60;;;7.87;;
14599;SDS011;7386;45.586;12.854;2024-03-02T10:19:35;23.67;;;14.93;;
14599;SDS011;7386;45.586;12.854;2024-03-02T10:22:04;35.03;;;19.97;;
14599;SDS011;7386;45.586;12.854;2024-03-02T10:24:38;22.07;;;12.53;;
14599;SDS011;7386;45.586;12.854;2024-03-02T10:27:08;15.90;;;8.80;;
14599;SDS011;7386;45.586;12.854;2024-03-02T10:29:37;33.53;;;18.53;;
14599;SDS011;7386;45.586;12.854;2024-03-02T10:32:08;26.50;;;16.43;;
14599;SDS011;7386;45.586;12.854;2024-03-02T10:34:37;13.20;;;8.93;;
14599;SDS011;7386;45.586;12.854;2024-03-02T10:37:07;11.73;;;6.83;;
14599;SDS011;7386;45.586;12.854;2024-03-02T10:39:37;30.50;;;18.20;;
14599;SDS011;7386;45.586;12.854;2024-03-02T10:42:07;21.53;;;11.20;;
14599;SDS011;7386;45.586;12.854;2024-03-02T10:44:36;15.13;;;8.17;;
14599;SDS011;7386;45.586;12.854;2024-03-02T10:47:04;28.80;;;16.87;;
14599;SDS011;7386;45.586;12.854;2024-03-02T10:49:33;31.23;;;19.87;;
14599;SDS011;7386;45.586;12.854;2024-03-02T10:52:01;19.17;;;11.03;;
14599;SDS011;7386;45.586;12.854;2024-03-02T10:54:30;28.47;;;18.10;;
14599;SDS011;7386;45.586;12.854;2024-03-02T10:57:05;28.77;;;16.67;;
14599;SDS011;7386;45.586;12.854;2024-03-02T10:59:37;14.73;;;9.03;;
14599;SDS011;7386;45.586;12.854;2024-03-02T11:02:06;39.17;;;23.43;;
14599;SDS011;7386;45.586;12.854;2024-03-02T11:04:35;31.40;;;17.67;;
14599;SDS011;7386;45.586;12.854;2024-03-02T11:07:04;38.40;;;22.23;;
14599;SDS011;7386;45.586;12.854;2024-03-02T11:09:34;52.93;;;32.20;;
14599;SDS011;7386;45.586;12.854;2024-03-02T11:12:06;35.73;;;20.23;;
14599;SDS011;7386;45.586;12.854;2024-03-02T11:14:40;19.10;;;11.83;;
14599;SDS011;7386;45.586;12.854;2024-03-02T11:17:09;68.50;;;39.80;;
14599;SDS011;7386;45.586;12.854;2024-03-02T11:19:38;49.47;;;29.00;;
14599;SDS011;7386;45.586;12.854;2024-03-02T11:22:07;30.13;;;17.90;;
14599;SDS011;7386;45.586;12.854;2024-03-02T11:24:36;60.00;;;37.80;;
14599;SDS011;7386;45.586;12.854;2024-03-02T11:27:06;68.57;;;38.97;;
14599;SDS011;7386;45.586;12.854;2024-03-02T11:29:44;39.40;;;21.30;;
14599;SDS011;7386;45.586;12.854;2024-03-02T11:32:16;25.63;;;14.13;;
14599;SDS011;7386;45.586;12.854;2024-03-02T11:34:45;68.43;;;41.10;;
14599;SDS011;7386;45.586;12.854;2024-03-02T11:37:14;46.77;;;27.80;;
14599;SDS011;7386;45.586;12.854;2024-03-02T11:39:43;25.47;;;14.60;;
14599;SDS011;7386;45.586;12.854;2024-03-02T11:42:14;18.47;;;9.40;;
14599;SDS011;7386;45.586;12.854;2024-03-02T11:44:43;79.97;;;46.73;;
14599;SDS011;7386;45.586;12.854;2024-03-02T11:47:13;44.67;;;27.13;;
14599;SDS011;7386;45.586;12.854;2024-03-02T11:49:43;30.30;;;17.03;;
14599;SDS011;7386;45.586;12.854;2024-03-02T11:52:12;73.20;;;44.40;;
14599;SDS011;7386;45.586;12.854;2024-03-02T11:54:42;56.27;;;33.67;;
14599;SDS011;7386;45.586;12.854;2024-03-02T11:57:16;34.83;;;21.23;;
14599;SDS011;7386;45.586;12.854;2024-03-02T11:59:46;75.43;;;43.43;;
14599;SDS011;7386;45.586;12.854;2024-03-02T12:02:17;85.97;;;51.83;;
14599;SDS011;7386;45.586;12.854;2024-03-02T12:04:46;45.90;;;26.70;;
14599;SDS011;7386;45.586;12.854;2024-03-02T12:07:18;29.33;;;16.03;;
14599;SDS011;7386;45.586;12.854;2024-03-02T12:09:47;85.30;;;51.30;;
14599;SDS011;7386;45.586;12.854;2024-03-02T12:12:17;51.00;;;31.20;;
14599;SDS011;7386;45.586;12.854;2024-03-02T12:14:52;29.17;;;16.53;;
14599;SDS011;7386;45.586;12.854;2024-03-02T12:17:22;82.73;;;46.57;;
14599;SDS011;7386;45.586;12.854;2024-03-02T12:19:50;62.37;;;35.90;;
14599;SDS011;7386;45.586;12.854;2024-03-02T12:22:19;36.07;;;20.83;;
14599;SDS011;7386;45.586;12.854;2024-03-02T12:24:47;59.07;;;35.97;;
14599;SDS011;7386;45.586;12.854;2024-03-02T12:27:16;93.73;;;54.77;;
14599;SDS011;7386;45.586;12.854;2024-03-02T12:29:50;53.03;;;30.43;;
14599;SDS011;7386;45.586;12.854;2024-03-02T12:32:19;26.27;;;17.03;;
14599;SDS011;7386;45.586;12.854;2024-03-02T12:34:47;84.60;;;48.77;;
14599;SDS011;7386;45.586;12.854;2024-03-02T12:37:16;64.50;;;36.20;;
14599;SDS011;7386;45.586;12.854;2024-03-02T12:39:44;30.70;;;19.37;;
14599;SDS011;7386;45.586;12.854;2024-03-02T12:42:13;75.53;;;43.80;;
14599;SDS011;7386;45.586;12.854;2024-03-02T12:44:42;63.17;;;37.03;;
14599;SDS011;7386;45.586;12.854;2024-03-02T12:47:11;36.60;;;21.47;;
14599;SDS011;7386;45.586;12.854;2024-03-02T12:49:40;19.60;;;12.20;;
14599;SDS011;7386;45.586;12.854;2024-03-02T12:52:09;80.47;;;47.60;;
14599;SDS011;7386;45.586;12.854;2024-03-02T12:54:40;50.07;;;29.10;;
14599;SDS011;7386;45.586;12.854;2024-03-02T12:57:08;30.60;;;17.30;;
14599;SDS011;7386;45.586;12.854;2024-03-02T12:59:37;59.47;;;37.40;;
14599;SDS011;7386;45.586;12.854;2024-03-02T13:02:06;63.77;;;37.43;;
14599;SDS011;7386;45.586;12.854;2024-03-02T13:04:38;41.67;;;23.23;;
14599;SDS011;7386;45.586;12.854;2024-03-02T13:07:06;62.03;;;38.10;;
14599;SDS011;7386;45.586;12.854;2024-03-02T13:09:35;107.03;;;61.60;;
14599;SDS011;7386;45.586;12.854;2024-03-02T13:12:03;62.43;;;36.73;;
14599;SDS011;7386;45.586;12.854;2024-03-02T13:14:32;83.90;;;46.40;;
14599;SDS011;7386;45.586;12.854;2024-03-02T13:17:01;104.57;;;60.90;;
14599;SDS011;7386;45.586;12.854;2024-03-02T13:19:31;57.27;;;33.67;;
14599;SDS011;7386;45.586;12.854;2024-03-02T13:22:01;45.77;;;26.93;;
14599;SDS011;7386;45.586;12.854;2024-03-02T13:24:30;75.73;;;43.80;;
14599;SDS011;7386;45.586;12.854;2024-03-02T13:26:59;43.00;;;26.57;;
14599;SDS011;7386;45.586;12.854;2024-03-02T13:29:30;50.53;;;30.60;;
14599;SDS011;7386;45.586;12.854;2024-03-02T13:31:59;87.93;;;50.87;;
14599;SDS011;7386;45.586;12.854;2024-03-02T13:34:27;50.37;;;30.80;;
14599;SDS011;7386;45.586;12.854;2024-03-02T13:36:55;43.80;;;26.17;;
14599;SDS011;7386;45.586;12.854;2024-03-02T13:39:25;67.27;;;42.73;;
14599;SDS011;7386;45.586;12.854;2024-03-02T13:41:57;51.57;;;30.50;;
14599;SDS011;7386;45.586;12.854;2024-03-02T13:44:30;41.30;;;23.47;;
14599;SDS011;7386;45.586;12.854;2024-03-02T13:46:59;58.40;;;36.97;;
14599;SDS011;7386;45.586;12.854;2024-03-02T13:49:28;57.30;;;31.63;;
14599;SDS011;7386;45.586;12.854;2024-03-02T13:52:02;37.80;;;23.27;;
14599;SDS011;7386;45.586;12.854;2024-03-02T13:54:38;62.20;;;37.73;;
14599;SDS011;7386;45.586;12.854;2024-03-02T13:57:08;48.97;;;28.67;;
14599;SDS011;7386;45.586;12.854;2024-03-02T13:59:37;36.80;;;23.23;;
14599;SDS011;7386;45.586;12.854;2024-03-02T14:02:06;67.97;;;39.77;;
14599;SDS011;7386;45.586;12.854;2024-03-02T14:04:35;43.87;;;26.07;;
14599;SDS011;7386;45.586;12.854;2024-03-02T14:07:04;32.87;;;18.67;;
14599;SDS011;7386;45.586;12.854;2024-03-02T14:09:35;59.70;;;34.40;;
14599;SDS011;7386;45.586;12.854;2024-03-02T14:12:05;41.20;;;25.07;;
14599;SDS011;7386;45.586;12.854;2024-03-02T14:14:33;35.43;;;19.17;;
14599;SDS011;7386;45.586;12.854;2024-03-02T14:17:02;56.83;;;34.67;;
14599;SDS011;7386;45.586;12.854;2024-03-02T14:19:32;43.27;;;26.70;;
14599;SDS011;7386;45.586;12.854;2024-03-02T14:22:02;28.67;;;15.83;;
14599;SDS011;7386;45.586;12.854;2024-03-02T14:24:32;45.30;;;26.47;;
14599;SDS011;7386;45.586;12.854;2024-03-02T14:27:00;54.43;;;31.93;;
14599;SDS011;7386;45.586;12.854;2024-03-02T14:29:47;37.90;;;21.10;;
14599;SDS011;7386;45.586;12.854;2024-03-02T14:32:15;45.03;;;28.20;;
14599;SDS011;7386;45.586;12.854;2024-03-02T14:34:44;60.83;;;35.83;;
14599;SDS011;7386;45.586;12.854;2024-03-02T14:37:13;45.17;;;25.70;;
14599;SDS011;7386;45.586;12.854;2024-03-02T14:39:42;36.53;;;20.43;;
14599;SDS011;7386;45.586;12.854;2024-03-02T14:42:10;63.13;;;38.70;;
14599;SDS011;7386;45.586;12.854;2024-03-02T14:44:38;55.00;;;32.00;;
14599;SDS011;7386;45.586;12.854;2024-03-02T14:47:08;39.97;;;21.23;;